createdAt,value
2018-08-19T00:01:59.547Z,3.73
2018-08-19T00:04:32.156Z,3.80
2018-08-19T00:07:03.661Z,3.60
2018-08-19T00:09:36.121Z,3.53
2018-08-19T00:12:11.030Z,3.33
2018-08-19T00:14:42.366Z,3.77
2018-08-19T00:17:14.584Z,3.70
2018-08-19T00:19:47.404Z,3.50
2018-08-19T00:22:18.716Z,3.37
2018-08-19T00:24:50.065Z,3.27
2018-08-19T00:27:21.786Z,3.40
2018-08-19T00:29:54.001Z,3.87
2018-08-19T00:32:25.103Z,3.43
2018-08-19T00:34:56.239Z,3.00
2018-08-19T00:37:27.615Z,3.40
2018-08-19T00:40:05.797Z,3.43
2018-08-19T00:42:36.911Z,3.20
2018-08-19T00:45:08.639Z,3.40
2018-08-19T00:47:43.271Z,3.47
2018-08-19T00:50:14.584Z,3.63
2018-08-19T00:52:45.975Z,3.87
2018-08-19T00:55:17.295Z,3.50
2018-08-19T00:57:52.577Z,3.50
2018-08-19T01:00:23.771Z,3.50
2018-08-19T01:02:55.148Z,3.47
2018-08-19T01:05:27.069Z,3.30
2018-08-19T01:07:58.683Z,3.87
2018-08-19T01:10:30.493Z,3.70
2018-08-19T01:13:03.227Z,3.30
2018-08-19T01:15:34.536Z,3.60
2018-08-19T01:18:06.311Z,3.60
2018-08-19T01:20:37.728Z,3.43
2018-08-19T01:23:09.981Z,3.73
2018-08-19T01:25:41.300Z,3.60
2018-08-19T01:28:12.530Z,3.37
2018-08-19T01:30:44.148Z,3.47
2018-08-19T01:33:15.581Z,3.60
2018-08-19T01:35:46.676Z,3.50
2018-08-19T01:38:17.855Z,3.87
2018-08-19T01:40:49.219Z,3.63
2018-08-19T01:43:20.217Z,4.07
2018-08-19T01:45:51.608Z,3.70
2018-08-19T01:48:22.663Z,3.60
2018-08-19T01:50:54.258Z,3.50
2018-08-19T01:53:27.481Z,3.47
2018-08-19T01:55:59.007Z,3.80
2018-08-19T01:58:31.783Z,3.87
2018-08-19T02:01:02.435Z,3.60
2018-08-19T02:03:33.701Z,4.00
2018-08-19T02:06:05.005Z,3.70
2018-08-19T02:08:36.133Z,3.30
2018-08-19T02:11:25.728Z,3.93
2018-08-19T02:13:57.151Z,3.53
2018-08-19T02:16:28.403Z,3.70
2018-08-19T02:19:00.478Z,3.77
2018-08-19T02:21:31.657Z,3.70
2018-08-19T02:24:02.695Z,3.53
2018-08-19T02:26:33.897Z,3.73
2018-08-19T02:29:15.586Z,4.00
2018-08-19T02:31:46.856Z,3.50
2018-08-19T02:34:21.713Z,3.67
2018-08-19T02:36:53.008Z,3.83
2018-08-19T02:39:30.957Z,3.90
2018-08-19T02:42:02.366Z,4.17
2018-08-19T02:44:33.492Z,3.67
2018-08-19T02:47:04.912Z,4.17
2018-08-19T02:49:36.053Z,3.97
2018-08-19T02:52:09.332Z,3.90
2018-08-19T02:54:40.579Z,4.27
2018-08-19T02:57:12.151Z,3.83
2018-08-19T02:59:43.568Z,4.23
2018-08-19T03:02:30.876Z,4.33
2018-08-19T03:05:04.615Z,3.77
2018-08-19T03:07:36.013Z,3.93
2018-08-19T03:10:11.061Z,4.27
2018-08-19T03:12:42.824Z,3.73
2018-08-19T03:15:16.004Z,3.60
2018-08-19T03:17:49.881Z,4.50
2018-08-19T03:20:21.548Z,4.33
2018-08-19T03:22:52.619Z,3.83
2018-08-19T03:25:23.964Z,3.90
2018-08-19T03:27:55.336Z,4.10
2018-08-19T03:30:26.363Z,3.83
2018-08-19T03:33:02.107Z,3.90
2018-08-19T03:35:33.526Z,3.63
2018-08-19T03:38:08.300Z,4.27
2018-08-19T03:40:38.980Z,4.03
2018-08-19T03:43:10.229Z,4.40
2018-08-19T03:45:41.008Z,4.33
2018-08-19T03:48:12.334Z,4.50
2018-08-19T03:50:43.555Z,4.53
2018-08-19T03:53:15.880Z,4.03
2018-08-19T03:55:47.258Z,4.20
2018-08-19T03:58:18.617Z,4.27
2018-08-19T04:00:50.126Z,4.40
2018-08-19T04:03:25.973Z,4.63
2018-08-19T04:06:00.332Z,3.93
2018-08-19T04:08:40.433Z,4.37
2018-08-19T04:11:11.759Z,4.40
2018-08-19T04:13:42.947Z,4.00
2018-08-19T04:16:14.136Z,4.50
2018-08-19T04:18:46.473Z,4.50
2018-08-19T04:21:18.510Z,4.70
2018-08-19T04:23:50.574Z,4.53
2018-08-19T04:26:21.880Z,4.50
2018-08-19T04:28:53.233Z,4.60
2018-08-19T04:31:24.907Z,4.73
2018-08-19T04:33:56.130Z,4.40
2018-08-19T04:36:27.479Z,4.50
2018-08-19T04:38:59.851Z,4.60
2018-08-19T04:41:31.212Z,4.40
2018-08-19T04:44:02.688Z,4.63
2018-08-19T04:46:34.154Z,4.73
2018-08-19T04:49:05.213Z,4.73
2018-08-19T04:51:36.802Z,4.90
2018-08-19T04:54:08.933Z,4.57
2018-08-19T04:56:40.094Z,4.80
2018-08-19T04:59:11.113Z,5.00
2018-08-19T05:01:43.689Z,4.73
2018-08-19T05:04:15.051Z,4.80
2018-08-19T05:06:46.290Z,4.70
2018-08-19T05:09:18.467Z,4.37
2018-08-19T05:11:49.803Z,4.50
2018-08-19T05:14:21.007Z,4.50
2018-08-19T05:16:52.197Z,4.53
2018-08-19T05:19:23.586Z,4.60
2018-08-19T05:22:00.727Z,4.90
2018-08-19T05:24:32.080Z,4.43
2018-08-19T05:27:09.004Z,4.80
2018-08-19T05:29:40.347Z,4.33
2018-08-19T05:32:15.637Z,4.60
2018-08-19T05:34:46.856Z,5.10
2018-08-19T05:37:20.892Z,4.63
2018-08-19T05:39:58.040Z,4.93
2018-08-19T05:42:29.683Z,5.33
2018-08-19T05:45:00.856Z,5.57
2018-08-19T05:47:32.182Z,6.00
2018-08-19T05:50:03.451Z,5.47
2018-08-19T05:52:34.672Z,4.83
2018-08-19T05:55:06.300Z,4.70
2018-08-19T05:57:37.442Z,4.40
2018-08-19T06:00:13.598Z,4.57
2018-08-19T06:02:45.460Z,4.40
2018-08-19T06:05:16.711Z,4.47
2018-08-19T06:07:52.008Z,4.40
2018-08-19T06:10:23.291Z,4.40
2018-08-19T06:12:54.443Z,4.23
2018-08-19T06:15:25.604Z,3.97
2018-08-19T06:17:57.091Z,4.23
2018-08-19T06:20:31.555Z,3.93
2018-08-19T06:23:02.924Z,3.67
2018-08-19T06:25:34.187Z,3.90
2018-08-19T06:28:05.422Z,3.90
2018-08-19T06:30:36.679Z,3.63
2018-08-19T06:33:08.629Z,3.63
2018-08-19T06:35:39.688Z,4.10
2018-08-19T06:38:10.954Z,3.73
2018-08-19T06:40:42.142Z,3.90
2018-08-19T06:43:13.523Z,3.67
2018-08-19T06:45:44.787Z,4.00
2018-08-19T06:48:15.826Z,3.30
2018-08-19T06:50:47.272Z,3.50
2018-08-19T06:53:23.793Z,3.67
2018-08-19T06:55:54.983Z,3.13
2018-08-19T06:58:28.204Z,3.40
2018-08-19T07:00:59.705Z,3.40
2018-08-19T07:03:37.531Z,3.40
2018-08-19T07:06:12.598Z,3.50
2018-08-19T07:08:44.090Z,3.27
2018-08-19T07:11:15.688Z,3.37
2018-08-19T07:13:47.428Z,3.20
2018-08-19T07:16:20.276Z,3.30
2018-08-19T07:18:51.087Z,3.10
2018-08-19T07:21:21.787Z,3.33
2018-08-19T07:24:55.903Z,3.10
2018-08-19T07:27:27.279Z,3.40
2018-08-19T07:29:58.603Z,2.90
2018-08-19T07:32:29.619Z,2.87
2018-08-19T07:35:01.001Z,3.33
2018-08-19T07:37:32.364Z,3.20
2018-08-19T07:40:03.416Z,3.00
2018-08-19T07:42:34.596Z,3.27
2018-08-19T07:45:05.837Z,2.90
2018-08-19T07:47:36.658Z,2.87
2018-08-19T07:50:09.009Z,3.33
2018-08-19T07:52:40.710Z,3.87
2018-08-19T07:55:11.760Z,3.03
2018-08-19T07:57:44.177Z,3.27
2018-08-19T08:00:17.091Z,3.10
2018-08-19T08:02:48.420Z,3.10
2018-08-19T08:05:19.663Z,3.30
2018-08-19T08:07:51.292Z,3.20
2018-08-19T08:10:22.898Z,3.00
2018-08-19T08:13:01.127Z,3.23
2018-08-19T08:15:33.087Z,3.43
2018-08-19T08:18:04.740Z,3.00
2018-08-19T08:20:36.165Z,2.87
2018-08-19T08:23:23.539Z,2.90
2018-08-19T08:25:54.965Z,3.77
2018-08-19T08:28:27.503Z,3.27
2018-08-19T08:30:58.979Z,3.07
2018-08-19T08:33:30.514Z,4.07
2018-08-19T08:36:01.862Z,3.10
2018-08-19T08:38:33.247Z,2.83
2018-08-19T08:45:57.576Z,2.97
2018-08-19T08:48:29.168Z,3.97
2018-08-19T08:51:00.930Z,3.00
2018-08-19T08:53:40.832Z,3.07
2018-08-19T08:56:12.220Z,3.00
2018-08-19T08:58:43.833Z,2.80
2018-08-19T09:01:15.232Z,4.10
2018-08-19T09:03:46.775Z,3.13
2018-08-19T09:06:22.693Z,2.87
2018-08-19T09:08:53.891Z,2.67
2018-08-19T09:11:25.556Z,2.80
2018-08-19T09:13:56.681Z,4.50
2018-08-19T09:16:27.873Z,3.67
2018-08-19T09:18:59.191Z,2.60
2018-08-19T09:21:30.471Z,2.70
2018-08-19T09:24:01.831Z,2.97
2018-08-19T09:26:33.528Z,2.60
2018-08-19T09:29:04.692Z,2.93
2018-08-19T09:31:35.728Z,2.80
2018-08-19T09:34:09.069Z,2.90
2018-08-19T09:36:40.051Z,3.20
2018-08-19T09:39:12.799Z,2.80
2018-08-19T09:41:44.092Z,2.97
2018-08-19T09:44:15.424Z,2.73
2018-08-19T09:46:46.466Z,2.80
2018-08-19T09:49:18.086Z,2.45
2018-08-19T09:51:49.231Z,2.87
2018-08-19T09:54:27.372Z,2.60
2018-08-19T09:56:58.723Z,3.10
2018-08-19T09:59:30.499Z,2.90
2018-08-19T10:02:06.448Z,2.73
2018-08-19T10:04:37.597Z,3.47
2018-08-19T10:07:12.315Z,2.80
2018-08-19T10:09:43.583Z,3.00
2018-08-19T10:12:16.135Z,2.92
2018-08-19T10:14:47.409Z,3.05
2018-08-19T10:17:22.365Z,2.90
2018-08-19T10:19:53.770Z,2.70
2018-08-19T10:22:29.241Z,2.70
2018-08-19T10:25:01.039Z,2.80
2018-08-19T10:27:32.692Z,2.55
2018-08-19T10:30:04.447Z,2.87
2018-08-19T10:32:35.883Z,2.85
2018-08-19T10:35:12.780Z,2.62
2018-08-19T10:37:44.718Z,2.67
2018-08-19T10:40:17.022Z,2.67
2018-08-19T10:42:49.180Z,2.87
2018-08-19T10:45:22.936Z,2.62
2018-08-19T10:47:54.235Z,2.45
2018-08-19T10:50:31.154Z,2.90
2018-08-19T10:53:02.684Z,4.97
2018-08-19T10:55:33.848Z,3.95
2018-08-19T10:58:05.423Z,2.72
2018-08-19T11:00:36.916Z,2.80
2018-08-19T11:03:13.632Z,2.90
2018-08-19T11:05:45.538Z,2.90
2018-08-19T11:08:16.903Z,2.80
2018-08-19T11:10:48.343Z,2.98
2018-08-19T11:13:25.095Z,2.55
2018-08-19T11:15:58.528Z,2.58
2018-08-19T11:20:40.847Z,2.50
2018-08-19T11:23:17.657Z,2.77
2018-08-19T11:25:49.217Z,2.42
2018-08-19T11:28:51.911Z,2.50
2018-08-19T11:31:28.419Z,3.00
2018-08-19T11:34:06.390Z,2.60
2018-08-19T11:36:46.144Z,2.90
2018-08-19T11:39:17.874Z,2.60
2018-08-19T11:41:49.039Z,2.52
2018-08-19T11:44:20.129Z,2.80
2018-08-19T11:46:51.480Z,2.80
2018-08-19T11:49:22.925Z,2.75
2018-08-19T11:51:57.047Z,2.50
2018-08-19T11:54:28.850Z,2.75
2018-08-19T11:57:06.959Z,2.40
2018-08-19T11:59:43.071Z,2.70
2018-08-19T12:02:19.783Z,2.90
2018-08-19T12:04:50.926Z,2.67
2018-08-19T12:07:22.348Z,2.52
2018-08-19T12:10:00.802Z,3.10
2018-08-19T12:12:50.475Z,3.25
2018-08-19T12:15:21.680Z,2.90
2018-08-19T12:17:53.073Z,2.62
2018-08-19T12:20:28.888Z,2.83
2018-08-19T12:22:59.984Z,2.50
2018-08-19T12:25:37.672Z,2.87
2018-08-19T12:28:08.809Z,2.67
2018-08-19T12:30:40.536Z,2.75
2018-08-19T12:33:24.825Z,2.70
2018-08-19T12:35:58.335Z,2.98
2018-08-19T12:38:29.576Z,2.83
2018-08-19T12:41:04.294Z,2.80
2018-08-19T12:43:36.113Z,2.83
2018-08-19T12:46:07.263Z,2.80
2018-08-19T12:48:38.399Z,2.90
2018-08-19T12:51:09.995Z,2.62
2018-08-19T12:53:42.377Z,2.65
2018-08-19T12:56:13.899Z,2.80
2018-08-19T12:58:44.925Z,2.72
2018-08-19T13:01:16.119Z,2.67
2018-08-19T13:03:47.478Z,2.83
2018-08-19T13:06:18.867Z,2.60
2018-08-19T13:08:50.223Z,2.90
2018-08-19T13:11:21.481Z,2.67
2018-08-19T13:13:52.843Z,2.87
2018-08-19T13:16:23.892Z,2.62
2018-08-19T13:18:55.242Z,2.80
2018-08-19T13:21:28.800Z,2.72
2018-08-19T13:24:00.476Z,2.70
2018-08-19T13:26:32.027Z,2.75
2018-08-19T13:29:03.464Z,2.70
2018-08-19T13:31:35.724Z,2.65
2018-08-19T13:34:06.939Z,2.80
2018-08-19T13:36:38.264Z,2.17
2018-08-19T13:39:10.968Z,2.70
2018-08-19T13:41:42.401Z,2.77
2018-08-19T13:44:15.649Z,2.55
2018-08-19T13:46:47.351Z,2.47
2018-08-19T13:49:29.040Z,2.70
2018-08-19T13:52:03.663Z,2.70
2018-08-19T13:54:35.177Z,2.70
2018-08-19T13:57:06.319Z,2.62
2018-08-19T13:59:37.677Z,2.90
2018-08-19T14:02:09.228Z,2.98
2018-08-19T14:04:40.887Z,2.70
2018-08-19T14:07:15.340Z,2.70
2018-08-19T14:09:49.711Z,2.60
2018-08-19T14:12:21.636Z,2.65
2018-08-19T14:14:56.108Z,2.77
2018-08-19T14:17:28.240Z,2.77
2018-08-19T14:20:07.664Z,2.65
2018-08-19T14:22:47.251Z,2.70
2018-08-19T14:25:23.420Z,2.70
2018-08-19T14:27:56.492Z,2.77
2018-08-19T14:30:33.844Z,2.92
2018-08-19T14:33:08.768Z,2.92
2018-08-19T14:35:41.188Z,2.77
2018-08-19T14:38:14.124Z,2.62
2018-08-19T14:40:45.683Z,2.67
2018-08-19T14:43:16.886Z,2.60
2018-08-19T14:45:48.581Z,2.50
2018-08-19T14:48:20.119Z,2.58
2018-08-19T14:50:51.298Z,2.80
2018-08-19T14:53:23.312Z,2.85
2018-08-19T14:56:08.175Z,2.60
2018-08-19T14:58:39.488Z,2.80
2018-08-19T15:01:11.108Z,2.45
2018-08-19T15:03:49.127Z,3.02
2018-08-19T15:06:20.496Z,2.80
2018-08-19T15:08:51.634Z,2.70
2018-08-19T15:11:23.289Z,2.95
2018-08-19T15:13:56.676Z,3.10
2018-08-19T15:16:27.812Z,2.77
2018-08-19T15:18:59.020Z,2.70
2018-08-19T15:21:30.324Z,2.77
2018-08-19T15:24:01.821Z,2.50
2018-08-19T15:26:32.970Z,2.87
2018-08-19T15:29:04.740Z,2.92
2018-08-19T15:31:36.432Z,2.50
2018-08-19T15:34:07.668Z,2.58
2018-08-19T15:36:39.855Z,2.60
2018-08-19T15:39:13.185Z,2.70
2018-08-19T15:41:44.390Z,2.60
2018-08-19T15:44:15.640Z,2.70
2018-08-19T15:47:50.152Z,2.92
2018-08-19T15:50:24.014Z,2.90
2018-08-19T15:52:55.377Z,2.65
2018-08-19T15:55:27.294Z,2.62
2018-08-19T15:58:03.388Z,2.77
2018-08-19T16:00:39.241Z,2.83
2018-08-19T16:03:12.843Z,2.85
2018-08-19T16:05:48.701Z,2.92
2018-08-19T16:08:21.995Z,2.55
2018-08-19T16:10:55.512Z,2.72
2018-08-19T16:18:22.006Z,2.60
2018-08-19T16:21:02.263Z,2.72
2018-08-19T16:24:16.419Z,2.98
2018-08-19T16:26:52.846Z,2.70
2018-08-19T16:29:29.639Z,2.80
2018-08-19T16:32:03.939Z,2.50
2018-08-19T16:34:37.439Z,2.83
2018-08-19T16:37:14.610Z,2.62
2018-08-19T16:39:51.915Z,2.95
2018-08-19T16:42:27.507Z,2.95
2018-08-19T16:45:06.791Z,2.80
2018-08-19T16:47:38.371Z,3.00
2018-08-19T16:50:12.928Z,2.70
2018-08-19T16:52:44.155Z,2.75
2018-08-19T16:55:15.477Z,2.95
2018-08-19T16:57:46.660Z,3.00
2018-08-19T17:00:17.863Z,2.52
2018-08-19T17:02:49.083Z,2.90
2018-08-19T17:05:34.177Z,2.95
2018-08-19T17:08:05.621Z,3.05
2018-08-19T17:10:36.978Z,2.30
2018-08-19T17:13:08.633Z,2.92
2018-08-19T17:15:39.812Z,2.70
2018-08-19T17:18:11.069Z,2.70
2018-08-19T17:20:42.674Z,2.77
2018-08-19T17:24:17.108Z,2.80
2018-08-19T17:26:48.463Z,2.73
2018-08-19T17:29:20.005Z,2.57
2018-08-19T17:31:51.668Z,2.70
2018-08-19T17:34:23.258Z,2.53
2018-08-19T17:36:54.364Z,2.77
2018-08-19T17:39:26.148Z,2.77
2018-08-19T17:41:57.308Z,2.80
2018-08-19T17:44:28.547Z,2.60
2018-08-19T17:46:59.744Z,2.67
2018-08-19T17:49:31.929Z,2.70
2018-08-19T17:52:03.104Z,2.87
2018-08-19T17:54:34.461Z,3.00
2018-08-19T17:57:06.365Z,2.43
2018-08-19T17:59:38.163Z,3.40
2018-08-19T18:02:09.734Z,3.10
2018-08-19T18:04:46.784Z,3.63
2018-08-19T18:07:28.385Z,3.00
2018-08-19T18:10:00.474Z,3.10
2018-08-19T18:12:32.334Z,3.57
2018-08-19T18:15:04.725Z,4.57
2018-08-19T18:17:36.472Z,3.90
2018-08-19T18:20:23.933Z,3.63
2018-08-19T18:22:56.572Z,3.53
2018-08-19T18:25:29.463Z,2.57
2018-08-19T18:28:05.333Z,2.90
2018-08-19T18:30:36.375Z,3.10
2018-08-19T18:33:07.462Z,2.90
2018-08-19T18:35:39.252Z,3.03
2018-08-19T18:38:25.244Z,3.43
2018-08-19T18:40:56.303Z,2.93
2018-08-19T18:43:28.092Z,3.20
2018-08-19T18:46:00.228Z,3.00
2018-08-19T18:48:32.258Z,2.70
2018-08-19T18:51:04.012Z,3.40
2018-08-19T18:53:37.136Z,3.13
2018-08-19T18:56:09.270Z,3.50
2018-08-19T18:58:42.846Z,3.73
2018-08-19T19:01:15.773Z,4.30
2018-08-19T19:03:48.247Z,4.73
2018-08-19T19:06:20.354Z,4.50
2018-08-19T19:08:52.808Z,3.70
2018-08-19T19:11:25.372Z,3.20
2018-08-19T19:13:59.814Z,3.73
2018-08-19T19:16:36.479Z,4.80
2018-08-19T19:19:09.745Z,5.20
2018-08-19T19:21:51.845Z,4.47
2018-08-19T19:24:27.589Z,7.10
2018-08-19T19:27:01.151Z,5.40
2018-08-19T19:29:33.055Z,5.40
2018-08-19T19:32:29.632Z,5.10
2018-08-19T19:35:07.718Z,5.43
2018-08-19T19:37:40.671Z,5.03
2018-08-19T19:40:12.836Z,3.50
2018-08-19T19:42:48.434Z,3.77
2018-08-19T19:45:21.166Z,3.50
2018-08-19T19:47:54.089Z,3.80
2018-08-19T19:50:26.113Z,3.40
2018-08-19T19:52:58.790Z,3.43
2018-08-19T19:55:31.355Z,2.90
2018-08-19T19:58:05.025Z,2.83
2018-08-19T20:00:53.124Z,3.10
2018-08-19T20:03:25.980Z,2.80
2018-08-19T20:05:58.846Z,2.83
2018-08-19T20:08:31.044Z,3.53
2018-08-19T20:11:03.343Z,3.30
2018-08-19T20:13:37.185Z,4.30
2018-08-19T20:16:10.558Z,3.60
2018-08-19T20:18:42.871Z,3.43
2018-08-19T20:21:19.991Z,3.40
2018-08-19T20:23:53.221Z,2.90
2018-08-19T20:26:27.574Z,2.83
2018-08-19T20:29:01.194Z,2.87
2018-08-19T20:31:33.648Z,3.00
2018-08-19T20:34:06.173Z,2.80
2018-08-19T20:36:38.393Z,3.07
2018-08-19T20:39:10.531Z,2.90
2018-08-19T20:41:42.713Z,2.60
2018-08-19T20:44:14.895Z,2.80
2018-08-19T20:46:51.390Z,3.37
2018-08-19T20:49:23.196Z,2.80
2018-08-19T20:51:56.342Z,3.20
2018-08-19T20:54:28.437Z,3.33
2018-08-19T20:57:00.287Z,3.50
2018-08-19T20:59:37.034Z,2.90
2018-08-19T21:02:09.928Z,2.83
2018-08-19T21:04:42.776Z,2.70
2018-08-19T21:07:16.093Z,2.77
2018-08-19T21:09:48.339Z,2.60
2018-08-19T21:12:20.681Z,2.70
2018-08-19T21:14:52.872Z,2.57
2018-08-19T21:17:25.216Z,2.60
2018-08-19T21:19:57.442Z,2.57
2018-08-19T21:22:29.609Z,2.77
2018-08-19T21:25:02.194Z,2.70
2018-08-19T21:28:39.185Z,2.70
2018-08-19T21:31:12.219Z,2.60
2018-08-19T21:33:44.471Z,2.47
2018-08-19T21:36:17.501Z,2.70
2018-08-19T21:38:50.357Z,2.50
2018-08-19T21:41:34.505Z,2.40
2018-08-19T21:44:07.085Z,2.40
2018-08-19T21:46:39.292Z,2.60
2018-08-19T21:49:11.963Z,2.63
2018-08-19T21:51:46.000Z,2.43
2018-08-19T21:54:18.662Z,2.50
2018-08-19T21:56:50.877Z,2.50
2018-08-19T21:59:24.576Z,3.13
2018-08-19T22:01:58.575Z,3.30
2018-08-19T22:04:31.624Z,2.67
2018-08-19T22:07:03.620Z,2.90
2018-08-19T22:09:38.765Z,2.80
2018-08-19T22:12:11.159Z,2.83
2018-08-19T22:14:44.164Z,2.63
2018-08-19T22:17:18.370Z,2.80
2018-08-19T22:19:50.301Z,2.93
2018-08-19T22:22:22.796Z,3.00
2018-08-19T22:24:55.198Z,2.73
2018-08-19T22:27:26.962Z,2.77
2018-08-19T22:29:59.171Z,2.73
2018-08-19T22:32:34.205Z,2.50
2018-08-19T22:35:06.837Z,2.40
2018-08-19T22:37:40.398Z,2.50
2018-08-19T22:40:14.472Z,2.63
2018-08-19T22:42:48.571Z,2.50
2018-08-19T22:45:21.069Z,2.50
2018-08-19T22:47:53.400Z,2.50
2018-08-19T22:50:26.075Z,2.80
2018-08-19T22:52:58.057Z,2.50
2018-08-19T22:55:29.950Z,2.40
2018-08-19T22:58:06.746Z,2.70
2018-08-19T23:00:39.951Z,2.50
2018-08-19T23:03:18.921Z,2.40
2018-08-19T23:05:51.122Z,3.57
2018-08-19T23:08:32.382Z,3.30
2018-08-19T23:11:06.440Z,2.67
2018-08-19T23:13:54.042Z,2.20
2018-08-19T23:16:26.491Z,2.13
2018-08-19T23:18:58.613Z,2.43
2018-08-19T23:21:30.913Z,2.13
2018-08-19T23:24:03.398Z,2.17
2018-08-19T23:26:35.771Z,2.20
2018-08-19T23:29:08.234Z,3.10
2018-08-19T23:31:41.361Z,2.30
2018-08-19T23:34:13.998Z,2.30
2018-08-19T23:36:46.293Z,2.30
2018-08-19T23:39:17.641Z,2.30
2018-08-19T23:41:49.203Z,2.30
2018-08-19T23:44:19.844Z,2.27
2018-08-19T23:46:51.180Z,1.90
2018-08-19T23:49:22.391Z,2.13
2018-08-19T23:51:53.055Z,2.00
2018-08-19T23:54:23.754Z,2.20
2018-08-19T23:56:54.984Z,2.00
2018-08-19T23:59:32.328Z,2.37
